Terminal Aerodrome Forecast
Issued by NWS Pueblo, CO

Home | Current Version | Previous Version | Text Only | Print | Product List | Glossary On
Versions: 1 2 3 4 5 6 7 8 9 10 11 12 13 14 15 16 17 18 19 20 21 22 23 24 25 26 27 28 29 30 31 32 33 34 35 36 37 38 39 40
000
FTUS45 KPUB 021728
TAFPUB
TAF
KPUB 021728Z 0218/0318 VRB06KT P6SM FEW070 SCT200
     FM022100 12006KT P6SM SCT200
     FM030200 VRB06KT P6SM SCT150
     FM030900 01015KT P6SM SCT020
     FM031400 03007KT P6SM SCT150=

USA.gov is the U.S. government's official web portal to all federal, state and local government web resources and services.